sensor_id;sensor_type;location;lat;lon;timestamp;temperature;humidity
40289;DHT22;28991;52.028;5.526;2023-06-04T00:00:37;22.20;41.90
40289;DHT22;28991;52.028;5.526;2023-06-04T00:03:02;22.20;41.90
40289;DHT22;28991;52.028;5.526;2023-06-04T00:05:28;22.20;42.00
40289;DHT22;28991;52.028;5.526;2023-06-04T00:07:53;22.20;42.00
40289;DHT22;28991;52.028;5.526;2023-06-04T00:10:19;22.10;42.00
40289;DHT22;28991;52.028;5.526;2023-06-04T00:12:45;22.50;42.20
40289;DHT22;28991;52.028;5.526;2023-06-04T00:15:10;22.10;42.00
40289;DHT22;28991;52.028;5.526;2023-06-04T00:17:36;22.10;42.10
40289;DHT22;28991;52.028;5.526;2023-06-04T00:20:02;22.20;42.10
40289;DHT22;28991;52.028;5.526;2023-06-04T00:22:28;22.10;42.10
40289;DHT22;28991;52.028;5.526;2023-06-04T00:24:53;22.10;42.10
40289;DHT22;28991;52.028;5.526;2023-06-04T00:27:19;22.20;42.70
40289;DHT22;28991;52.028;5.526;2023-06-04T00:29:44;22.10;42.10
40289;DHT22;28991;52.028;5.526;2023-06-04T00:32:10;22.10;42.20
40289;DHT22;28991;52.028;5.526;2023-06-04T00:34:35;22.10;42.20
40289;DHT22;28991;52.028;5.526;2023-06-04T00:37:01;22.10;42.20
40289;DHT22;28991;52.028;5.526;2023-06-04T00:39:27;22.10;42.20
40289;DHT22;28991;52.028;5.526;2023-06-04T00:41:52;22.00;42.20
40289;DHT22;28991;52.028;5.526;2023-06-04T00:44:18;21.90;42.20
40289;DHT22;28991;52.028;5.526;2023-06-04T00:46:44;22.10;42.30
40289;DHT22;28991;52.028;5.526;2023-06-04T00:49:11;22.00;42.30
40289;DHT22;28991;52.028;5.526;2023-06-04T00:51:37;22.10;42.40
40289;DHT22;28991;52.028;5.526;2023-06-04T00:54:04;22.00;42.30
40289;DHT22;28991;52.028;5.526;2023-06-04T00:56:34;22.00;42.40
40289;DHT22;28991;52.028;5.526;2023-06-04T00:59:00;22.50;42.60
40289;DHT22;28991;52.028;5.526;2023-06-04T01:01:27;22.00;42.40
40289;DHT22;28991;52.028;5.526;2023-06-04T01:03:55;21.90;42.40
40289;DHT22;28991;52.028;5.526;2023-06-04T01:06:39;22.00;42.50
40289;DHT22;28991;52.028;5.526;2023-06-04T01:09:05;22.00;42.50
40289;DHT22;28991;52.028;5.526;2023-06-04T01:11:36;22.00;42.50
40289;DHT22;28991;52.028;5.526;2023-06-04T01:14:03;22.10;42.60
40289;DHT22;28991;52.028;5.526;2023-06-04T01:16:33;22.00;42.60
40289;DHT22;28991;52.028;5.526;2023-06-04T01:19:02;22.00;42.60
40289;DHT22;28991;52.028;5.526;2023-06-04T01:21:32;22.00;42.60
40289;DHT22;28991;52.028;5.526;2023-06-04T01:24:01;22.00;42.70
40289;DHT22;28991;52.028;5.526;2023-06-04T01:26:31;22.00;42.70
40289;DHT22;28991;52.028;5.526;2023-06-04T01:28:58;22.00;42.70
40289;DHT22;28991;52.028;5.526;2023-06-04T01:31:25;22.10;42.80
40289;DHT22;28991;52.028;5.526;2023-06-04T01:33:52;22.00;42.80
40289;DHT22;28991;52.028;5.526;2023-06-04T01:36:18;22.00;42.80
40289;DHT22;28991;52.028;5.526;2023-06-04T01:38:44;22.00;42.80
40289;DHT22;28991;52.028;5.526;2023-06-04T01:41:10;21.90;42.80
40289;DHT22;28991;52.028;5.526;2023-06-04T01:43:36;22.00;42.90
40289;DHT22;28991;52.028;5.526;2023-06-04T01:46:02;21.90;42.80
40289;DHT22;28991;52.028;5.526;2023-06-04T01:48:29;21.90;43.40
40289;DHT22;28991;52.028;5.526;2023-06-04T01:50:55;22.00;42.90
40289;DHT22;28991;52.028;5.526;2023-06-04T01:53:20;22.00;42.90
40289;DHT22;28991;52.028;5.526;2023-06-04T01:55:46;21.90;42.90
40289;DHT22;28991;52.028;5.526;2023-06-04T01:58:17;21.90;42.90
40289;DHT22;28991;52.028;5.526;2023-06-04T02:00:51;21.90;43.00
40289;DHT22;28991;52.028;5.526;2023-06-04T02:03:18;21.90;43.00
40289;DHT22;28991;52.028;5.526;2023-06-04T02:05:44;22.00;43.10
40289;DHT22;28991;52.028;5.526;2023-06-04T02:08:14;21.90;43.00
40289;DHT22;28991;52.028;5.526;2023-06-04T02:10:47;21.90;43.10
40289;DHT22;28991;52.028;5.526;2023-06-04T02:13:14;21.90;43.10
40289;DHT22;28991;52.028;5.526;2023-06-04T02:15:40;21.90;43.10
40289;DHT22;28991;52.028;5.526;2023-06-04T02:18:14;21.90;43.10
40289;DHT22;28991;52.028;5.526;2023-06-04T02:20:44;21.90;43.20
40289;DHT22;28991;52.028;5.526;2023-06-04T02:23:10;21.90;43.20
40289;DHT22;28991;52.028;5.526;2023-06-04T02:25:36;21.80;43.10
40289;DHT22;28991;52.028;5.526;2023-06-04T02:28:01;21.90;43.20
40289;DHT22;28991;52.028;5.526;2023-06-04T02:30:27;21.90;43.20
40289;DHT22;28991;52.028;5.526;2023-06-04T02:32:52;21.90;43.20
40289;DHT22;28991;52.028;5.526;2023-06-04T02:35:20;21.80;43.20
40289;DHT22;28991;52.028;5.526;2023-06-04T02:37:50;21.90;43.30
40289;DHT22;28991;52.028;5.526;2023-06-04T02:40:16;21.90;43.30
40289;DHT22;28991;52.028;5.526;2023-06-04T02:42:42;21.90;43.30
40289;DHT22;28991;52.028;5.526;2023-06-04T02:45:08;21.90;43.30
40289;DHT22;28991;52.028;5.526;2023-06-04T02:47:33;21.80;43.30
40289;DHT22;28991;52.028;5.526;2023-06-04T02:49:59;21.90;43.40
40289;DHT22;28991;52.028;5.526;2023-06-04T02:52:25;21.90;43.40
40289;DHT22;28991;52.028;5.526;2023-06-04T02:54:51;21.80;43.40
40289;DHT22;28991;52.028;5.526;2023-06-04T02:57:17;21.80;43.40
40289;DHT22;28991;52.028;5.526;2023-06-04T02:59:42;21.80;43.40
40289;DHT22;28991;52.028;5.526;2023-06-04T03:02:08;22.00;43.50
40289;DHT22;28991;52.028;5.526;2023-06-04T03:04:33;21.90;43.50
40289;DHT22;28991;52.028;5.526;2023-06-04T03:07:02;21.80;43.50
40289;DHT22;28991;52.028;5.526;2023-06-04T03:09:30;21.80;43.50
40289;DHT22;28991;52.028;5.526;2023-06-04T03:11:59;22.20;43.70
40289;DHT22;28991;52.028;5.526;2023-06-04T03:14:26;21.80;43.50
40289;DHT22;28991;52.028;5.526;2023-06-04T03:16:58;21.80;43.50
40289;DHT22;28991;52.028;5.526;2023-06-04T03:19:26;22.20;43.80
40289;DHT22;28991;52.028;5.526;2023-06-04T03:21:53;21.90;43.60
40289;DHT22;28991;52.028;5.526;2023-06-04T03:24:19;22.40;43.90
40289;DHT22;28991;52.028;5.526;2023-06-04T03:26:45;21.80;43.60
40289;DHT22;28991;52.028;5.526;2023-06-04T03:29:10;21.80;43.60
40289;DHT22;28991;52.028;5.526;2023-06-04T03:31:37;21.80;43.60
40289;DHT22;28991;52.028;5.526;2023-06-04T03:34:02;21.80;43.60
40289;DHT22;28991;52.028;5.526;2023-06-04T03:36:30;21.80;43.60
40289;DHT22;28991;52.028;5.526;2023-06-04T03:39:03;21.80;43.60
40289;DHT22;28991;52.028;5.526;2023-06-04T03:41:30;22.00;43.80
40289;DHT22;28991;52.028;5.526;2023-06-04T03:43:56;21.80;43.70
40289;DHT22;28991;52.028;5.526;2023-06-04T03:46:21;21.80;43.60
40289;DHT22;28991;52.028;5.526;2023-06-04T03:48:47;21.80;43.60
40289;DHT22;28991;52.028;5.526;2023-06-04T03:51:12;21.80;43.70
40289;DHT22;28991;52.028;5.526;2023-06-04T03:53:38;22.00;43.70
40289;DHT22;28991;52.028;5.526;2023-06-04T03:56:03;21.80;43.60
40289;DHT22;28991;52.028;5.526;2023-06-04T03:58:29;21.80;43.60
40289;DHT22;28991;52.028;5.526;2023-06-04T04:00:55;21.90;43.60
40289;DHT22;28991;52.028;5.526;2023-06-04T04:03:21;21.90;43.60
40289;DHT22;28991;52.028;5.526;2023-06-04T04:05:47;22.20;43.80
40289;DHT22;28991;52.028;5.526;2023-06-04T04:08:12;22.10;43.70
40289;DHT22;28991;52.028;5.526;2023-06-04T04:10:41;22.00;43.50
40289;DHT22;28991;52.028;5.526;2023-06-04T04:13:07;22.10;43.50
40289;DHT22;28991;52.028;5.526;2023-06-04T04:15:32;22.20;43.40
40289;DHT22;28991;52.028;5.526;2023-06-04T04:17:58;22.20;43.30
40289;DHT22;28991;52.028;5.526;2023-06-04T04:20:24;22.30;43.20
40289;DHT22;28991;52.028;5.526;2023-06-04T04:22:50;22.50;43.10
40289;DHT22;28991;52.028;5.526;2023-06-04T04:25:16;22.50;42.90
40289;DHT22;28991;52.028;5.526;2023-06-04T04:27:41;22.60;42.80
40289;DHT22;28991;52.028;5.526;2023-06-04T04:30:07;22.60;42.60
40289;DHT22;28991;52.028;5.526;2023-06-04T04:32:33;22.80;42.50
40289;DHT22;28991;52.028;5.526;2023-06-04T04:34:58;22.80;42.30
40289;DHT22;28991;52.028;5.526;2023-06-04T04:37:24;23.00;42.20
40289;DHT22;28991;52.028;5.526;2023-06-04T04:39:51;23.00;42.00
40289;DHT22;28991;52.028;5.526;2023-06-04T04:42:18;23.20;41.80
40289;DHT22;28991;52.028;5.526;2023-06-04T04:44:44;23.30;41.70
40289;DHT22;28991;52.028;5.526;2023-06-04T04:47:14;23.50;41.50
40289;DHT22;28991;52.028;5.526;2023-06-04T04:49:39;23.50;41.30
40289;DHT22;28991;52.028;5.526;2023-06-04T04:52:05;23.70;41.70
40289;DHT22;28991;52.028;5.526;2023-06-04T04:54:30;23.80;41.00
40289;DHT22;28991;52.028;5.526;2023-06-04T04:56:56;23.90;40.70
40289;DHT22;28991;52.028;5.526;2023-06-04T04:59:21;24.10;40.50
40289;DHT22;28991;52.028;5.526;2023-06-04T05:01:47;24.20;40.30
40289;DHT22;28991;52.028;5.526;2023-06-04T05:04:12;24.30;40.10
40289;DHT22;28991;52.028;5.526;2023-06-04T05:06:38;24.50;39.90
40289;DHT22;28991;52.028;5.526;2023-06-04T05:09:03;24.50;39.60
40289;DHT22;28991;52.028;5.526;2023-06-04T05:11:29;24.70;39.50
40289;DHT22;28991;52.028;5.526;2023-06-04T05:13:55;25.00;39.30
40289;DHT22;28991;52.028;5.526;2023-06-04T05:16:20;25.40;39.20
40289;DHT22;28991;52.028;5.526;2023-06-04T05:18:48;25.10;38.80
40289;DHT22;28991;52.028;5.526;2023-06-04T05:21:16;25.20;38.50
40289;DHT22;28991;52.028;5.526;2023-06-04T05:23:42;25.30;38.20
40289;DHT22;28991;52.028;5.526;2023-06-04T05:26:10;25.40;38.10
40289;DHT22;28991;52.028;5.526;2023-06-04T05:28:36;25.60;37.90
40289;DHT22;28991;52.028;5.526;2023-06-04T05:31:01;25.50;37.60
40289;DHT22;28991;52.028;5.526;2023-06-04T05:33:29;25.70;37.40
40289;DHT22;28991;52.028;5.526;2023-06-04T05:35:56;25.80;37.20
40289;DHT22;28991;52.028;5.526;2023-06-04T05:38:26;26.20;37.20
40289;DHT22;28991;52.028;5.526;2023-06-04T05:40:54;26.10;36.90
40289;DHT22;28991;52.028;5.526;2023-06-04T05:43:20;26.20;36.70
40289;DHT22;28991;52.028;5.526;2023-06-04T05:45:46;26.50;36.60
40289;DHT22;28991;52.028;5.526;2023-06-04T05:48:12;26.40;36.30
40289;DHT22;28991;52.028;5.526;2023-06-04T05:50:38;26.50;36.10
40289;DHT22;28991;52.028;5.526;2023-06-04T05:53:03;26.60;36.00
40289;DHT22;28991;52.028;5.526;2023-06-04T05:55:29;26.80;35.90
40289;DHT22;28991;52.028;5.526;2023-06-04T05:57:55;26.90;35.70
40289;DHT22;28991;52.028;5.526;2023-06-04T06:00:21;27.00;35.50
40289;DHT22;28991;52.028;5.526;2023-06-04T06:02:50;27.10;35.40
40289;DHT22;28991;52.028;5.526;2023-06-04T06:05:17;27.20;35.30
40289;DHT22;28991;52.028;5.526;2023-06-04T06:07:42;27.30;35.10
40289;DHT22;28991;52.028;5.526;2023-06-04T06:10:08;27.40;35.10
40289;DHT22;28991;52.028;5.526;2023-06-04T06:12:34;27.50;35.00
40289;DHT22;28991;52.028;5.526;2023-06-04T06:14:59;27.50;34.80
40289;DHT22;28991;52.028;5.526;2023-06-04T06:17:25;27.70;34.90
40289;DHT22;28991;52.028;5.526;2023-06-04T06:19:52;27.60;34.80
40289;DHT22;28991;52.028;5.526;2023-06-04T06:22:17;27.70;34.90
40289;DHT22;28991;52.028;5.526;2023-06-04T06:24:43;27.70;34.90
40289;DHT22;28991;52.028;5.526;2023-06-04T06:27:10;27.70;34.90
40289;DHT22;28991;52.028;5.526;2023-06-04T06:29:36;27.70;34.90
40289;DHT22;28991;52.028;5.526;2023-06-04T06:32:02;27.80;35.60
40289;DHT22;28991;52.028;5.526;2023-06-04T06:34:28;27.80;35.10
40289;DHT22;28991;52.028;5.526;2023-06-04T06:36:53;27.80;35.10
40289;DHT22;28991;52.028;5.526;2023-06-04T06:39:19;27.80;34.90
40289;DHT22;28991;52.028;5.526;2023-06-04T06:41:45;27.80;34.80
40289;DHT22;28991;52.028;5.526;2023-06-04T06:44:11;27.70;34.70
40289;DHT22;28991;52.028;5.526;2023-06-04T06:46:37;27.60;34.70
40289;DHT22;28991;52.028;5.526;2023-06-04T06:49:02;27.50;34.50
40289;DHT22;28991;52.028;5.526;2023-06-04T06:51:28;27.50;34.60
40289;DHT22;28991;52.028;5.526;2023-06-04T06:53:53;27.30;34.40
40289;DHT22;28991;52.028;5.526;2023-06-04T06:56:19;27.30;34.30
40289;DHT22;28991;52.028;5.526;2023-06-04T06:58:45;27.30;34.40
40289;DHT22;28991;52.028;5.526;2023-06-04T07:01:11;27.20;34.30
40289;DHT22;28991;52.028;5.526;2023-06-04T07:03:37;27.10;34.50
40289;DHT22;28991;52.028;5.526;2023-06-04T07:06:04;27.10;34.40
40289;DHT22;28991;52.028;5.526;2023-06-04T07:08:29;27.00;34.40
40289;DHT22;28991;52.028;5.526;2023-06-04T07:10:55;26.90;34.40
40289;DHT22;28991;52.028;5.526;2023-06-04T07:13:20;26.90;34.50
40289;DHT22;28991;52.028;5.526;2023-06-04T07:15:46;26.80;34.30
40289;DHT22;28991;52.028;5.526;2023-06-04T07:18:12;26.80;34.40
40289;DHT22;28991;52.028;5.526;2023-06-04T07:20:37;26.80;34.40
40289;DHT22;28991;52.028;5.526;2023-06-04T07:23:03;26.80;34.40
40289;DHT22;28991;52.028;5.526;2023-06-04T07:25:28;26.80;34.40
40289;DHT22;28991;52.028;5.526;2023-06-04T07:27:54;26.70;34.40
40289;DHT22;28991;52.028;5.526;2023-06-04T07:30:23;26.70;34.40
40289;DHT22;28991;52.028;5.526;2023-06-04T07:32:49;26.70;34.40
40289;DHT22;28991;52.028;5.526;2023-06-04T07:35:16;26.60;34.40
40289;DHT22;28991;52.028;5.526;2023-06-04T07:37:41;26.60;34.50
40289;DHT22;28991;52.028;5.526;2023-06-04T07:40:10;26.50;34.70
40289;DHT22;28991;52.028;5.526;2023-06-04T07:42:36;26.50;34.70
40289;DHT22;28991;52.028;5.526;2023-06-04T07:45:02;26.40;34.80
40289;DHT22;28991;52.028;5.526;2023-06-04T07:47:28;26.30;34.80
40289;DHT22;28991;52.028;5.526;2023-06-04T07:49:53;26.30;34.90
40289;DHT22;28991;52.028;5.526;2023-06-04T07:52:19;26.10;34.80
40289;DHT22;28991;52.028;5.526;2023-06-04T07:54:44;26.20;34.90
40289;DHT22;28991;52.028;5.526;2023-06-04T07:57:10;26.20;35.10
40289;DHT22;28991;52.028;5.526;2023-06-04T07:59:36;26.10;35.10
40289;DHT22;28991;52.028;5.526;2023-06-04T08:02:01;26.10;35.10
40289;DHT22;28991;52.028;5.526;2023-06-04T08:04:27;26.10;35.20
40289;DHT22;28991;52.028;5.526;2023-06-04T08:06:52;26.00;35.20
40289;DHT22;28991;52.028;5.526;2023-06-04T08:09:19;25.90;35.20
40289;DHT22;28991;52.028;5.526;2023-06-04T08:11:44;25.90;35.20
40289;DHT22;28991;52.028;5.526;2023-06-04T08:14:13;25.80;35.30
40289;DHT22;28991;52.028;5.526;2023-06-04T08:16:39;25.80;35.40
40289;DHT22;28991;52.028;5.526;2023-06-04T08:19:06;25.80;35.50
40289;DHT22;28991;52.028;5.526;2023-06-04T08:21:32;25.70;35.50
40289;DHT22;28991;52.028;5.526;2023-06-04T08:23:58;25.70;35.70
40289;DHT22;28991;52.028;5.526;2023-06-04T08:26:25;25.60;35.70
40289;DHT22;28991;52.028;5.526;2023-06-04T08:28:52;25.60;36.30
40289;DHT22;28991;52.028;5.526;2023-06-04T08:31:18;25.50;35.70
40289;DHT22;28991;52.028;5.526;2023-06-04T08:33:46;25.50;35.70
40289;DHT22;28991;52.028;5.526;2023-06-04T08:36:12;25.40;35.60
40289;DHT22;28991;52.028;5.526;2023-06-04T08:38:38;25.40;35.60
40289;DHT22;28991;52.028;5.526;2023-06-04T08:41:26;25.30;35.50
40289;DHT22;28991;52.028;5.526;2023-06-04T08:43:55;25.30;35.50
40289;DHT22;28991;52.028;5.526;2023-06-04T08:46:21;25.30;35.50
40289;DHT22;28991;52.028;5.526;2023-06-04T08:48:50;25.30;35.50
40289;DHT22;28991;52.028;5.526;2023-06-04T08:51:16;25.20;35.50
40289;DHT22;28991;52.028;5.526;2023-06-04T08:53:42;25.20;35.40
40289;DHT22;28991;52.028;5.526;2023-06-04T08:56:08;25.10;35.40
40289;DHT22;28991;52.028;5.526;2023-06-04T08:58:35;25.10;35.40
40289;DHT22;28991;52.028;5.526;2023-06-04T09:01:01;25.10;35.40
40289;DHT22;28991;52.028;5.526;2023-06-04T09:03:28;25.40;35.70
40289;DHT22;28991;52.028;5.526;2023-06-04T09:05:57;25.10;35.50
40289;DHT22;28991;52.028;5.526;2023-06-04T09:08:23;25.00;35.40
40289;DHT22;28991;52.028;5.526;2023-06-04T09:10:50;25.00;35.40
40289;DHT22;28991;52.028;5.526;2023-06-04T09:13:19;24.90;35.30
40289;DHT22;28991;52.028;5.526;2023-06-04T09:15:57;24.90;35.40
40289;DHT22;28991;52.028;5.526;2023-06-04T09:18:25;24.80;35.20
40289;DHT22;28991;52.028;5.526;2023-06-04T09:23:28;24.80;35.20
40289;DHT22;28991;52.028;5.526;2023-06-04T09:25:54;24.80;35.10
40289;DHT22;28991;52.028;5.526;2023-06-04T09:28:20;24.80;35.10
40289;DHT22;28991;52.028;5.526;2023-06-04T09:30:53;24.70;34.90
40289;DHT22;28991;52.028;5.526;2023-06-04T09:33:18;24.70;34.80
40289;DHT22;28991;52.028;5.526;2023-06-04T09:35:55;24.70;34.80
40289;DHT22;28991;52.028;5.526;2023-06-04T09:38:21;24.70;34.60
40289;DHT22;28991;52.028;5.526;2023-06-04T09:40:47;24.50;34.50
40289;DHT22;28991;52.028;5.526;2023-06-04T09:43:22;24.60;34.50
40289;DHT22;28991;52.028;5.526;2023-06-04T09:45:48;24.60;34.20
40289;DHT22;28991;52.028;5.526;2023-06-04T09:48:21;24.60;34.20
40289;DHT22;28991;52.028;5.526;2023-06-04T09:50:47;24.60;34.00
40289;DHT22;28991;52.028;5.526;2023-06-04T09:53:19;24.60;33.90
40289;DHT22;28991;52.028;5.526;2023-06-04T09:56:01;24.50;33.70
40289;DHT22;28991;52.028;5.526;2023-06-04T09:58:29;24.50;33.50
40289;DHT22;28991;52.028;5.526;2023-06-04T10:01:00;24.50;33.40
40289;DHT22;28991;52.028;5.526;2023-06-04T10:03:31;24.50;33.20
40289;DHT22;28991;52.028;5.526;2023-06-04T10:05:59;24.50;33.10
40289;DHT22;28991;52.028;5.526;2023-06-04T10:08:27;24.40;32.90
40289;DHT22;28991;52.028;5.526;2023-06-04T10:10:59;24.50;32.80
40289;DHT22;28991;52.028;5.526;2023-06-04T10:13:30;24.30;32.60
40289;DHT22;28991;52.028;5.526;2023-06-04T10:16:00;24.40;32.60
40289;DHT22;28991;52.028;5.526;2023-06-04T10:18:30;24.40;32.50
40289;DHT22;28991;52.028;5.526;2023-06-04T10:20:56;24.40;32.50
40289;DHT22;28991;52.028;5.526;2023-06-04T10:23:23;24.40;32.40
40289;DHT22;28991;52.028;5.526;2023-06-04T10:25:49;24.30;32.30
40289;DHT22;28991;52.028;5.526;2023-06-04T10:28:18;24.30;32.30
40289;DHT22;28991;52.028;5.526;2023-06-04T10:30:45;24.30;32.20
40289;DHT22;28991;52.028;5.526;2023-06-04T10:33:11;24.30;32.20
40289;DHT22;28991;52.028;5.526;2023-06-04T10:35:38;24.30;32.20
40289;DHT22;28991;52.028;5.526;2023-06-04T10:38:08;24.30;32.10
40289;DHT22;28991;52.028;5.526;2023-06-04T10:40:35;24.20;32.10
40289;DHT22;28991;52.028;5.526;2023-06-04T10:43:11;24.20;32.10
40289;DHT22;28991;52.028;5.526;2023-06-04T10:45:37;24.20;32.10
40289;DHT22;28991;52.028;5.526;2023-06-04T10:48:07;24.20;32.10
40289;DHT22;28991;52.028;5.526;2023-06-04T10:50:34;24.20;32.10
40289;DHT22;28991;52.028;5.526;2023-06-04T10:53:01;24.20;32.10
40289;DHT22;28991;52.028;5.526;2023-06-04T10:55:30;24.30;32.10
40289;DHT22;28991;52.028;5.526;2023-06-04T10:57:58;24.20;32.00
40289;DHT22;28991;52.028;5.526;2023-06-04T11:00:44;24.20;32.00
40289;DHT22;28991;52.028;5.526;2023-06-04T11:03:12;24.10;32.00
40289;DHT22;28991;52.028;5.526;2023-06-04T11:05:42;24.20;32.10
40289;DHT22;28991;52.028;5.526;2023-06-04T11:08:09;24.10;32.00
40289;DHT22;28991;52.028;5.526;2023-06-04T11:10:43;24.10;32.10
40289;DHT22;28991;52.028;5.526;2023-06-04T11:13:10;24.10;32.10
40289;DHT22;28991;52.028;5.526;2023-06-04T11:15:42;24.00;32.10
40289;DHT22;28991;52.028;5.526;2023-06-04T11:18:18;24.00;32.20
40289;DHT22;28991;52.028;5.526;2023-06-04T11:20:46;24.00;32.30
40289;DHT22;28991;52.028;5.526;2023-06-04T11:23:13;24.00;32.30
40289;DHT22;28991;52.028;5.526;2023-06-04T11:25:39;24.00;32.40
40289;DHT22;28991;52.028;5.526;2023-06-04T11:28:05;24.00;32.60
40289;DHT22;28991;52.028;5.526;2023-06-04T11:30:30;24.00;32.60
40289;DHT22;28991;52.028;5.526;2023-06-04T11:33:05;23.90;32.70
40289;DHT22;28991;52.028;5.526;2023-06-04T11:35:39;23.90;32.70
40289;DHT22;28991;52.028;5.526;2023-06-04T11:38:05;23.90;32.90
40289;DHT22;28991;52.028;5.526;2023-06-04T11:40:31;23.90;32.90
40289;DHT22;28991;52.028;5.526;2023-06-04T11:42:56;23.90;33.00
40289;DHT22;28991;52.028;5.526;2023-06-04T11:45:23;23.90;33.10
40289;DHT22;28991;52.028;5.526;2023-06-04T11:47:51;23.80;33.10
40289;DHT22;28991;52.028;5.526;2023-06-04T11:50:17;23.90;33.20
40289;DHT22;28991;52.028;5.526;2023-06-04T11:52:43;23.80;33.30
40289;DHT22;28991;52.028;5.526;2023-06-04T11:55:10;23.80;33.30
40289;DHT22;28991;52.028;5.526;2023-06-04T11:57:37;23.80;33.40
40289;DHT22;28991;52.028;5.526;2023-06-04T12:00:04;23.80;33.50
40289;DHT22;28991;52.028;5.526;2023-06-04T12:02:47;23.80;34.20
40289;DHT22;28991;52.028;5.526;2023-06-04T12:05:17;23.80;33.70
40289;DHT22;28991;52.028;5.526;2023-06-04T12:07:50;23.80;33.80
40289;DHT22;28991;52.028;5.526;2023-06-04T12:10:17;23.70;33.80
40289;DHT22;28991;52.028;5.526;2023-06-04T12:12:43;23.70;33.80
40289;DHT22;28991;52.028;5.526;2023-06-04T12:15:09;23.60;33.80
40289;DHT22;28991;52.028;5.526;2023-06-04T12:17:35;23.70;34.00
40289;DHT22;28991;52.028;5.526;2023-06-04T12:20:02;23.70;34.00
40289;DHT22;28991;52.028;5.526;2023-06-04T12:22:28;23.70;34.10
40289;DHT22;28991;52.028;5.526;2023-06-04T12:24:55;23.60;34.10
40289;DHT22;28991;52.028;5.526;2023-06-04T12:27:23;23.70;34.20
40289;DHT22;28991;52.028;5.526;2023-06-04T12:30:03;23.60;34.20
40289;DHT22;28991;52.028;5.526;2023-06-04T12:32:29;23.60;34.30
40289;DHT22;28991;52.028;5.526;2023-06-04T12:34:55;23.60;34.40
40289;DHT22;28991;52.028;5.526;2023-06-04T12:37:22;23.60;34.40
40289;DHT22;28991;52.028;5.526;2023-06-04T12:39:50;23.60;34.50
40289;DHT22;28991;52.028;5.526;2023-06-04T12:42:18;23.60;34.50
40289;DHT22;28991;52.028;5.526;2023-06-04T12:44:44;23.50;34.50
40289;DHT22;28991;52.028;5.526;2023-06-04T12:47:10;23.70;34.70
40289;DHT22;28991;52.028;5.526;2023-06-04T12:49:36;23.60;34.70
40289;DHT22;28991;52.028;5.526;2023-06-04T12:52:02;23.60;34.70
40289;DHT22;28991;52.028;5.526;2023-06-04T12:54:27;23.60;34.80
40289;DHT22;28991;52.028;5.526;2023-06-04T12:56:54;23.50;34.80
40289;DHT22;28991;52.028;5.526;2023-06-04T12:59:22;23.60;34.90
40289;DHT22;28991;52.028;5.526;2023-06-04T13:01:47;23.60;34.90
40289;DHT22;28991;52.028;5.526;2023-06-04T13:04:13;23.60;35.00
40289;DHT22;28991;52.028;5.526;2023-06-04T13:06:39;23.60;35.00
40289;DHT22;28991;52.028;5.526;2023-06-04T13:09:05;23.60;35.10
40289;DHT22;28991;52.028;5.526;2023-06-04T13:11:43;23.50;35.10
40289;DHT22;28991;52.028;5.526;2023-06-04T13:14:09;23.60;35.20
40289;DHT22;28991;52.028;5.526;2023-06-04T13:16:35;23.50;35.20
40289;DHT22;28991;52.028;5.526;2023-06-04T13:19:02;23.50;35.20
40289;DHT22;28991;52.028;5.526;2023-06-04T13:21:27;23.50;35.30
40289;DHT22;28991;52.028;5.526;2023-06-04T13:23:53;23.60;35.40
40289;DHT22;28991;52.028;5.526;2023-06-04T13:26:20;23.40;35.30
40289;DHT22;28991;52.028;5.526;2023-06-04T13:28:46;23.60;35.40
40289;DHT22;28991;52.028;5.526;2023-06-04T13:31:12;23.70;35.50
40289;DHT22;28991;52.028;5.526;2023-06-04T13:33:37;23.50;35.50
40289;DHT22;28991;52.028;5.526;2023-06-04T13:36:03;23.50;35.50
40289;DHT22;28991;52.028;5.526;2023-06-04T13:38:31;23.50;35.60
40289;DHT22;28991;52.028;5.526;2023-06-04T13:40:56;23.50;35.60
40289;DHT22;28991;52.028;5.526;2023-06-04T13:43:22;23.40;35.60
40289;DHT22;28991;52.028;5.526;2023-06-04T13:45:47;23.50;35.70
40289;DHT22;28991;52.028;5.526;2023-06-04T13:48:14;23.50;35.70
40289;DHT22;28991;52.028;5.526;2023-06-04T13:50:41;23.50;35.80
40289;DHT22;28991;52.028;5.526;2023-06-04T13:53:08;23.50;35.80
40289;DHT22;28991;52.028;5.526;2023-06-04T13:55:33;23.40;35.80
40289;DHT22;28991;52.028;5.526;2023-06-04T13:57:59;23.40;35.80
40289;DHT22;28991;52.028;5.526;2023-06-04T14:00:24;23.40;35.90
40289;DHT22;28991;52.028;5.526;2023-06-04T14:02:50;23.50;35.90
40289;DHT22;28991;52.028;5.526;2023-06-04T14:05:16;23.50;36.00
40289;DHT22;28991;52.028;5.526;2023-06-04T14:07:42;23.50;36.00
40289;DHT22;28991;52.028;5.526;2023-06-04T14:10:09;23.40;36.00
40289;DHT22;28991;52.028;5.526;2023-06-04T14:12:37;23.40;36.00
40289;DHT22;28991;52.028;5.526;2023-06-04T14:15:04;23.40;36.10
40289;DHT22;28991;52.028;5.526;2023-06-04T14:17:29;23.40;36.10
40289;DHT22;28991;52.028;5.526;2023-06-04T14:19:55;23.40;36.10
40289;DHT22;28991;52.028;5.526;2023-06-04T14:22:20;23.40;36.20
40289;DHT22;28991;52.028;5.526;2023-06-04T14:24:46;23.60;36.30
40289;DHT22;28991;52.028;5.526;2023-06-04T14:27:12;23.30;36.20
40289;DHT22;28991;52.028;5.526;2023-06-04T14:29:38;23.40;36.30
40289;DHT22;28991;52.028;5.526;2023-06-04T14:32:04;23.40;36.30
40289;DHT22;28991;52.028;5.526;2023-06-04T14:34:30;23.40;36.30
40289;DHT22;28991;52.028;5.526;2023-06-04T14:36:57;23.40;36.40
40289;DHT22;28991;52.028;5.526;2023-06-04T14:39:25;23.40;36.40
40289;DHT22;28991;52.028;5.526;2023-06-04T14:41:51;23.40;37.00
40289;DHT22;28991;52.028;5.526;2023-06-04T14:44:17;23.70;36.60
40289;DHT22;28991;52.028;5.526;2023-06-04T14:46:43;23.40;36.50
40289;DHT22;28991;52.028;5.526;2023-06-04T14:49:09;23.40;36.50
40289;DHT22;28991;52.028;5.526;2023-06-04T14:51:34;23.40;36.50
40289;DHT22;28991;52.028;5.526;2023-06-04T14:54:00;23.80;36.80
40289;DHT22;28991;52.028;5.526;2023-06-04T14:56:25;23.40;36.60
40289;DHT22;28991;52.028;5.526;2023-06-04T14:58:52;23.40;36.70
40289;DHT22;28991;52.028;5.526;2023-06-04T15:01:17;23.40;36.70
40289;DHT22;28991;52.028;5.526;2023-06-04T15:03:43;23.30;36.60
40289;DHT22;28991;52.028;5.526;2023-06-04T15:06:08;23.40;36.70
40289;DHT22;28991;52.028;5.526;2023-06-04T15:08:34;23.40;36.80
40289;DHT22;28991;52.028;5.526;2023-06-04T15:10:59;23.40;36.80
40289;DHT22;28991;52.028;5.526;2023-06-04T15:13:25;23.40;36.80
40289;DHT22;28991;52.028;5.526;2023-06-04T15:15:51;23.40;36.90
40289;DHT22;28991;52.028;5.526;2023-06-04T15:18:16;23.40;36.90
40289;DHT22;28991;52.028;5.526;2023-06-04T15:20:42;23.40;36.90
40289;DHT22;28991;52.028;5.526;2023-06-04T15:23:07;23.40;36.90
40289;DHT22;28991;52.028;5.526;2023-06-04T15:25:33;23.40;37.00
40289;DHT22;28991;52.028;5.526;2023-06-04T15:27:59;23.60;37.20
40289;DHT22;28991;52.028;5.526;2023-06-04T15:30:25;23.30;37.00